createdAt,value
2023-04-02T00:00:12.686Z,82.96
2023-04-02T00:02:48.518Z,82.64
2023-04-02T00:05:16.702Z,82.91
2023-04-02T00:07:49.028Z,83.03
2023-04-02T00:10:33.682Z,83.12
2023-04-02T00:13:10.680Z,83.06
2023-04-02T00:15:39.508Z,83.09
2023-04-02T00:18:07.632Z,82.96
2023-04-02T00:20:41.015Z,83.06
2023-04-02T00:23:10.547Z,83.03
2023-04-02T00:25:49.649Z,83.16
2023-04-02T00:28:20.970Z,83.28
2023-04-02T00:30:56.941Z,83.22
2023-04-02T00:33:28.450Z,83.07
2023-04-02T00:35:56.609Z,83.47
2023-04-02T00:38:35.450Z,83.28
2023-04-02T00:41:05.222Z,83.28
2023-04-02T00:43:35.960Z,83.31
2023-04-02T00:46:10.916Z,83.41
2023-04-02T00:48:56.728Z,83.43
2023-04-02T00:51:35.779Z,83.57
2023-04-02T00:54:06.929Z,83.63
2023-04-02T00:56:44.319Z,83.68
2023-04-02T00:59:31.353Z,83.62
2023-04-02T01:02:18.802Z,83.81
2023-04-02T01:05:11.494Z,83.72
2023-04-02T01:08:06.510Z,83.75
2023-04-02T01:10:50.299Z,83.79
2023-04-02T01:13:23.256Z,83.82
2023-04-02T01:16:14.799Z,83.98
2023-04-02T01:18:56.975Z,83.85
2023-04-02T01:21:42.807Z,83.95
2023-04-02T01:24:14.787Z,83.98
2023-04-02T01:26:57.694Z,84.02
2023-04-02T01:29:48.983Z,84.21
2023-04-02T01:32:20.755Z,84.22
2023-04-02T01:34:49.642Z,84.06
2023-04-02T01:37:49.852Z,84.19
2023-04-02T01:40:21.589Z,84.21
2023-04-02T01:43:10.068Z,83.98
2023-04-02T01:45:37.204Z,84.16
2023-04-02T01:48:20.011Z,84.38
2023-04-02T01:50:50.300Z,84.35
2023-04-02T01:53:20.719Z,84.31
2023-04-02T01:55:52.761Z,84.14
2023-04-02T01:58:26.542Z,84.46
2023-04-02T02:00:57.167Z,84.43
2023-04-02T02:03:24.279Z,84.57
2023-04-02T02:05:51.542Z,84.43
2023-04-02T02:08:31.626Z,84.54
2023-04-02T02:10:59.448Z,84.74
2023-04-02T02:13:26.186Z,85.03
2023-04-02T02:15:56.596Z,84.73
2023-04-02T02:18:23.947Z,84.92
2023-04-02T02:20:53.106Z,85.08
2023-04-02T02:23:21.764Z,84.88
2023-04-02T02:25:48.702Z,85.02
2023-04-02T02:28:24.352Z,84.87
2023-04-02T02:30:56.269Z,84.65
2023-04-02T02:33:26.983Z,84.71
2023-04-02T02:36:01.357Z,84.78
2023-04-02T02:38:34.502Z,84.52
2023-04-02T02:41:08.169Z,84.73
2023-04-02T02:43:39.322Z,84.71
2023-04-02T02:46:08.872Z,84.42
2023-04-02T02:48:39.572Z,84.38
2023-04-02T02:51:14.480Z,84.36
2023-04-02T02:53:53.529Z,84.25
2023-04-02T02:56:23.788Z,84.17
2023-04-02T02:58:53.632Z,84.38
2023-04-02T03:01:21.328Z,84.28
2023-04-02T03:03:49.688Z,84.13
2023-04-02T03:06:20.991Z,84.33
2023-04-02T03:08:57.890Z,83.87
2023-04-02T03:11:35.282Z,83.93
2023-04-02T03:14:31.622Z,83.85
2023-04-02T03:17:11.202Z,83.67
2023-04-02T03:19:48.343Z,83.54
2023-04-02T03:22:23.748Z,83.68
2023-04-02T03:25:00.034Z,83.80
2023-04-02T03:27:37.207Z,83.69
2023-04-02T03:30:27.173Z,83.78
2023-04-02T03:33:00.656Z,83.36
2023-04-02T03:35:43.660Z,83.62
2023-04-02T03:38:31.052Z,83.89
2023-04-02T03:41:06.735Z,83.68
2023-04-02T03:43:50.181Z,83.47
2023-04-02T03:46:37.013Z,83.51
2023-04-02T03:49:12.765Z,83.42
2023-04-02T03:51:51.157Z,83.62
2023-04-02T03:54:18.378Z,83.42
2023-04-02T03:56:47.857Z,83.44
2023-04-02T03:59:35.062Z,83.66
2023-04-02T04:02:24.849Z,83.40
2023-04-02T04:04:54.662Z,83.47
2023-04-02T04:07:35.291Z,83.28
2023-04-02T04:10:04.728Z,83.33
2023-04-02T04:12:43.783Z,83.23
2023-04-02T04:15:19.250Z,83.29
2023-04-02T04:17:55.382Z,83.23
2023-04-02T04:20:26.652Z,83.43
2023-04-02T04:22:58.150Z,83.46
2023-04-02T04:25:30.811Z,83.49
2023-04-02T04:28:06.163Z,83.40
2023-04-02T04:30:51.201Z,82.97
2023-04-02T04:33:29.255Z,83.11
2023-04-02T04:35:59.544Z,83.04
2023-04-02T04:38:33.128Z,83.19
2023-04-02T04:41:21.687Z,83.09
2023-04-02T04:43:48.305Z,83.18
2023-04-02T04:46:20.931Z,83.13
2023-04-02T04:48:52.795Z,83.01
2023-04-02T04:51:25.857Z,83.31
2023-04-02T04:53:55.513Z,83.16
2023-04-02T04:56:27.033Z,82.89
2023-04-02T04:58:59.708Z,83.28
2023-04-02T05:01:41.137Z,83.13
2023-04-02T05:04:24.942Z,83.07
2023-04-02T05:07:03.325Z,83.13
2023-04-02T05:09:36.735Z,83.21
2023-04-02T05:12:22.158Z,83.09
2023-04-02T05:14:54.994Z,83.00
2023-04-02T05:17:37.785Z,82.91
2023-04-02T05:20:28.443Z,82.75
2023-04-02T05:22:58.812Z,82.94
2023-04-02T05:25:29.026Z,83.09
2023-04-02T05:28:18.390Z,83.18
2023-04-02T05:30:58.253Z,83.25
2023-04-02T05:33:27.606Z,83.14
2023-04-02T05:36:06.227Z,83.16
2023-04-02T05:38:36.848Z,83.10
2023-04-02T05:41:29.187Z,83.00
2023-04-02T05:44:22.047Z,83.31
2023-04-02T05:46:51.910Z,83.37
2023-04-02T05:49:28.539Z,83.38
2023-04-02T05:52:01.094Z,83.50
2023-04-02T05:54:52.570Z,83.69
2023-04-02T05:57:39.546Z,83.52
2023-04-02T06:00:18.504Z,83.55
2023-04-02T06:02:54.870Z,83.60
2023-04-02T06:05:26.968Z,83.81
2023-04-02T06:08:03.678Z,83.76
2023-04-02T06:10:35.556Z,83.90
2023-04-02T06:13:09.142Z,83.81
2023-04-02T06:15:38.354Z,83.85
2023-04-02T06:18:05.234Z,83.98
2023-04-02T06:20:32.983Z,84.16
2023-04-02T06:23:19.586Z,84.11
2023-04-02T06:25:53.284Z,84.10
2023-04-02T06:28:28.553Z,84.27
2023-04-02T06:31:01.296Z,84.27
2023-04-02T06:33:28.196Z,84.32
2023-04-02T06:35:55.680Z,84.35
2023-04-02T06:38:29.799Z,84.20
2023-04-02T06:41:10.749Z,83.64
2023-04-02T06:43:50.113Z,83.84
2023-04-02T06:46:43.095Z,84.12
2023-04-02T06:49:19.528Z,83.97
2023-04-02T06:51:48.411Z,84.11
2023-04-02T06:54:17.226Z,84.27
2023-04-02T06:56:50.055Z,83.74
2023-04-02T06:59:17.889Z,84.16
2023-04-02T07:01:54.076Z,84.14
2023-04-02T07:04:22.298Z,83.62
2023-04-02T07:06:49.331Z,84.07
2023-04-02T07:09:17.213Z,83.98
2023-04-02T07:11:44.052Z,83.63
2023-04-02T07:14:16.534Z,83.31
2023-04-02T07:16:44.322Z,82.99
2023-04-02T07:19:20.719Z,83.24
2023-04-02T07:21:48.245Z,83.48
2023-04-02T07:24:15.365Z,83.31
2023-04-02T07:26:42.356Z,83.08
2023-04-02T07:29:14.981Z,82.66
2023-04-02T07:31:41.982Z,82.94
2023-04-02T07:34:10.497Z,82.73
2023-04-02T07:36:37.777Z,82.45
2023-04-02T07:39:04.740Z,82.33
2023-04-02T07:41:31.519Z,82.39
2023-04-02T07:43:58.548Z,81.73
2023-04-02T07:46:26.095Z,81.96
2023-04-02T07:48:53.255Z,81.26
2023-04-02T07:51:22.062Z,80.94
2023-04-02T07:53:51.009Z,80.42
2023-04-02T07:56:19.994Z,80.49
2023-04-02T07:58:47.364Z,80.53
2023-04-02T08:01:24.351Z,80.58
2023-04-02T08:03:54.281Z,80.31
2023-04-02T08:06:22.059Z,79.98
2023-04-02T08:08:49.118Z,79.89
2023-04-02T08:11:16.318Z,79.40
2023-04-02T08:13:43.311Z,79.22
2023-04-02T08:16:10.937Z,79.44
2023-04-02T08:18:38.459Z,79.46
2023-04-02T08:21:10.351Z,79.50
2023-04-02T08:23:37.844Z,79.64
2023-04-02T08:26:05.934Z,79.72
2023-04-02T08:28:32.613Z,79.69
2023-04-02T08:30:59.623Z,79.43
2023-04-02T08:33:27.140Z,79.31
2023-04-02T08:35:54.082Z,79.41
2023-04-02T08:38:22.585Z,79.42
2023-04-02T08:40:52.250Z,79.53
2023-04-02T08:43:40.995Z,79.73
2023-04-02T08:46:17.249Z,79.81
2023-04-02T08:48:49.264Z,80.28
2023-04-02T08:51:28.365Z,80.24
2023-04-02T08:54:00.510Z,80.42
2023-04-02T08:56:37.260Z,80.97
2023-04-02T08:59:24.996Z,81.23
2023-04-02T09:02:16.037Z,81.50
2023-04-02T09:04:43.467Z,81.58
2023-04-02T09:07:15.664Z,80.63
2023-04-02T09:09:42.768Z,79.85
2023-04-02T09:12:36.591Z,79.83
2023-04-02T09:15:29.746Z,79.46
2023-04-02T09:18:01.224Z,79.61
2023-04-02T09:20:29.432Z,79.67
2023-04-02T09:22:57.258Z,79.72
2023-04-02T09:25:28.016Z,79.91
2023-04-02T09:27:57.676Z,79.78
2023-04-02T09:30:29.729Z,79.44
2023-04-02T09:33:02.694Z,79.48
2023-04-02T09:35:32.647Z,79.52
2023-04-02T09:38:13.377Z,79.78
2023-04-02T09:40:51.392Z,80.05
2023-04-02T09:43:21.660Z,79.86
2023-04-02T09:46:16.680Z,79.79
2023-04-02T09:49:01.170Z,79.86
2023-04-02T09:51:34.833Z,80.03
2023-04-02T09:54:04.724Z,79.88
2023-04-02T09:56:39.954Z,80.20
2023-04-02T09:59:12.482Z,80.33
2023-04-02T10:02:06.282Z,80.09
2023-04-02T10:04:48.145Z,79.98
2023-04-02T10:07:40.622Z,79.95
2023-04-02T10:10:19.429Z,80.53
2023-04-02T10:12:51.613Z,80.44
2023-04-02T10:15:25.835Z,80.38
2023-04-02T10:18:04.022Z,80.52
2023-04-02T10:20:41.791Z,80.71
2023-04-02T10:23:17.450Z,80.73
2023-04-02T10:25:55.153Z,80.42
2023-04-02T10:28:44.841Z,80.56
2023-04-02T10:31:29.998Z,81.05
2023-04-02T10:34:04.130Z,80.84
2023-04-02T10:36:48.299Z,80.93
2023-04-02T10:39:15.268Z,80.79
2023-04-02T10:41:53.623Z,80.74
2023-04-02T10:44:49.766Z,80.97
2023-04-02T10:47:28.878Z,81.06
2023-04-02T10:50:36.260Z,81.13
2023-04-02T10:53:09.734Z,81.26
2023-04-02T10:55:43.379Z,81.12
2023-04-02T10:58:26.908Z,80.93
2023-04-02T11:01:24.339Z,80.87
2023-04-02T11:04:19.051Z,80.18
2023-04-02T11:07:03.476Z,80.65
2023-04-02T11:09:43.649Z,80.91
2023-04-02T11:12:42.098Z,80.64
2023-04-02T11:15:19.205Z,80.10
2023-04-02T11:17:46.726Z,79.86
2023-04-02T11:20:43.307Z,79.51
2023-04-02T11:23:18.424Z,79.85
2023-04-02T11:25:46.741Z,79.67
2023-04-02T11:28:25.927Z,79.39
2023-04-02T11:30:53.630Z,79.16
2023-04-02T11:33:39.249Z,79.18
2023-04-02T11:36:44.901Z,79.09
2023-04-02T11:39:17.532Z,79.13
2023-04-02T11:42:03.940Z,78.88
2023-04-02T11:44:31.032Z,78.69
2023-04-02T11:47:18.896Z,78.41
2023-04-02T11:49:55.712Z,77.72
2023-04-02T11:52:26.305Z,77.40
2023-04-02T11:55:05.160Z,77.22
2023-04-02T11:57:50.891Z,77.21
2023-04-02T12:00:45.365Z,77.29
2023-04-02T12:03:30.212Z,77.25
2023-04-02T12:06:13.548Z,77.50
2023-04-02T12:08:57.213Z,77.21
2023-04-02T12:11:34.579Z,77.03
2023-04-02T12:14:03.158Z,76.49
2023-04-02T12:16:34.816Z,76.95
2023-04-02T12:19:01.633Z,77.16
2023-04-02T12:21:29.872Z,77.04
2023-04-02T12:23:59.592Z,77.39
2023-04-02T12:26:32.245Z,77.09
2023-04-02T12:29:27.103Z,76.60
2023-04-02T12:31:56.314Z,76.57
2023-04-02T12:34:25.895Z,76.25
2023-04-02T12:37:04.733Z,76.76
2023-04-02T12:39:33.767Z,76.84
2023-04-02T12:42:00.814Z,76.48
2023-04-02T12:44:30.541Z,76.49
2023-04-02T12:46:59.394Z,76.87
2023-04-02T12:49:39.626Z,77.06
2023-04-02T12:52:13.158Z,76.81
2023-04-02T12:54:53.769Z,76.89
2023-04-02T12:57:40.175Z,77.00
2023-04-02T13:00:25.217Z,77.18
2023-04-02T13:03:13.355Z,77.14
2023-04-02T13:05:44.775Z,77.57
2023-04-02T13:08:23.058Z,77.53
2023-04-02T13:10:56.915Z,77.65
2023-04-02T13:13:46.224Z,77.67
2023-04-02T13:16:12.951Z,77.95
2023-04-02T13:18:40.653Z,77.94
2023-04-02T13:23:51.875Z,77.51
2023-04-02T13:26:18.607Z,78.07
2023-04-02T13:29:01.402Z,78.22
2023-04-02T13:31:30.416Z,78.63
2023-04-02T13:33:57.346Z,78.67
2023-04-02T13:36:24.207Z,78.60
2023-04-02T13:38:51.327Z,78.66
2023-04-02T13:41:28.371Z,78.64
2023-04-02T13:43:57.659Z,78.45
2023-04-02T13:46:27.431Z,78.72
2023-04-02T13:48:55.086Z,78.97
2023-04-02T13:51:34.438Z,78.95
2023-04-02T13:54:01.425Z,78.93
2023-04-02T13:56:29.096Z,78.88
2023-04-02T13:58:55.980Z,79.08
2023-04-02T14:01:24.765Z,79.38
2023-04-02T14:03:53.300Z,79.29
2023-04-02T14:06:37.849Z,79.32
2023-04-02T14:09:18.664Z,79.50
2023-04-02T14:11:56.455Z,79.64
2023-04-02T14:14:37.281Z,79.22
2023-04-02T14:17:21.037Z,79.35
2023-04-02T14:20:00.841Z,79.61
2023-04-02T14:22:36.694Z,79.65
2023-04-02T14:25:37.954Z,79.51
2023-04-02T14:28:13.876Z,79.83
2023-04-02T14:31:08.489Z,79.34
2023-04-02T14:34:03.366Z,79.38
2023-04-02T14:36:50.010Z,79.84
2023-04-02T14:39:32.980Z,79.76
2023-04-02T14:42:16.966Z,80.04
2023-04-02T14:44:53.462Z,79.95
2023-04-02T14:47:30.035Z,80.26
2023-04-02T14:50:11.849Z,79.88
2023-04-02T14:52:42.543Z,79.47
2023-04-02T14:55:21.849Z,79.45
2023-04-02T14:57:54.047Z,79.43
2023-04-02T15:00:45.025Z,79.29
2023-04-02T15:03:36.662Z,79.17
2023-04-02T15:06:09.798Z,79.40
2023-04-02T15:08:52.254Z,78.94
2023-04-02T15:11:31.591Z,79.57
2023-04-02T15:14:13.156Z,79.23
2023-04-02T15:16:40.265Z,78.74
2023-04-02T15:19:13.468Z,79.08
2023-04-02T15:22:03.958Z,78.98
2023-04-02T15:24:43.461Z,78.48
2023-04-02T15:27:38.427Z,78.75
2023-04-02T15:30:15.220Z,78.30
2023-04-02T15:32:43.801Z,78.23
2023-04-02T15:35:18.725Z,78.18
2023-04-02T15:38:12.120Z,78.36
2023-04-02T15:40:59.816Z,78.93
2023-04-02T15:43:39.190Z,78.85
2023-04-02T15:46:32.601Z,78.94
2023-04-02T15:49:03.303Z,79.36
2023-04-02T15:51:57.980Z,79.63
2023-04-02T15:54:41.436Z,79.65
2023-04-02T15:57:25.195Z,80.14
2023-04-02T16:00:30.681Z,80.43
2023-04-02T16:03:06.358Z,80.24
2023-04-02T16:06:05.931Z,79.85
2023-04-02T16:08:35.654Z,80.11
2023-04-02T16:11:02.457Z,79.99
2023-04-02T16:13:36.721Z,80.43
2023-04-02T16:16:05.885Z,80.54
2023-04-02T16:18:56.969Z,80.57
2023-04-02T16:21:32.481Z,80.92
2023-04-02T16:23:59.396Z,81.05
2023-04-02T16:26:34.901Z,81.26
2023-04-02T16:29:25.680Z,81.17
2023-04-02T16:32:11.493Z,81.23
2023-04-02T16:35:15.232Z,81.49
2023-04-02T16:37:53.279Z,81.05
2023-04-02T16:40:34.110Z,81.23
2023-04-02T16:43:10.629Z,81.06
2023-04-02T16:46:13.402Z,80.87
2023-04-02T16:48:57.593Z,81.00
2023-04-02T16:51:52.245Z,80.92
2023-04-02T16:55:02.335Z,80.98
2023-04-02T16:57:53.239Z,80.81
2023-04-02T17:00:32.520Z,81.35
2023-04-02T17:03:27.282Z,81.32
2023-04-02T17:06:08.369Z,81.55
2023-04-02T17:09:09.493Z,81.46
2023-04-02T17:11:52.966Z,82.10
2023-04-02T17:15:26.697Z,81.88
2023-04-02T17:17:58.623Z,82.29
2023-04-02T17:20:26.697Z,82.13
2023-04-02T17:22:54.516Z,82.41
2023-04-02T17:25:34.304Z,82.51
2023-04-02T17:28:03.173Z,82.33
2023-04-02T17:30:47.335Z,82.16
2023-04-02T17:33:16.400Z,82.45
2023-04-02T17:35:46.096Z,82.11
2023-04-02T17:38:20.254Z,82.00
2023-04-02T17:41:08.659Z,82.26
2023-04-02T17:43:58.816Z,82.15
2023-04-02T17:46:45.920Z,81.99
2023-04-02T17:49:26.930Z,81.78
2023-04-02T17:52:07.668Z,81.56
2023-04-02T17:54:52.077Z,81.80
2023-04-02T17:58:01.783Z,81.66
2023-04-02T18:00:51.420Z,81.67
2023-04-02T18:03:36.304Z,81.71
2023-04-02T18:06:16.365Z,81.61
2023-04-02T18:08:57.193Z,81.57
2023-04-02T18:11:37.873Z,81.23
2023-04-02T18:14:37.480Z,81.18
2023-04-02T18:17:30.322Z,81.31
2023-04-02T18:20:16.779Z,81.32
2023-04-02T18:22:57.873Z,81.50
2023-04-02T18:25:43.257Z,81.56
2023-04-02T18:28:23.966Z,81.48
2023-04-02T18:31:01.436Z,81.72
2023-04-02T18:33:29.282Z,81.87
2023-04-02T18:35:56.005Z,81.77
2023-04-02T18:38:43.113Z,81.73
2023-04-02T18:41:51.022Z,81.49
2023-04-02T18:44:38.877Z,81.61
2023-04-02T18:47:31.377Z,81.30
2023-04-02T18:50:15.947Z,81.77
2023-04-02T18:52:43.313Z,81.57
2023-04-02T18:55:31.730Z,81.65
2023-04-02T18:58:06.325Z,81.62
2023-04-02T19:00:38.466Z,81.87
2023-04-02T19:03:21.618Z,81.66
2023-04-02T19:06:01.227Z,81.63
2023-04-02T19:08:43.941Z,81.56
2023-04-02T19:11:28.780Z,81.47
2023-04-02T19:14:00.399Z,81.65
2023-04-02T19:16:55.152Z,81.85
2023-04-02T19:19:25.710Z,81.74
2023-04-02T19:22:24.772Z,81.74
2023-04-02T19:25:05.593Z,81.71
2023-04-02T19:27:55.921Z,81.64
2023-04-02T19:30:45.736Z,81.56
2023-04-02T19:33:26.236Z,81.72
2023-04-02T19:35:57.071Z,81.75
2023-04-02T19:38:46.611Z,81.83
2023-04-02T19:41:48.714Z,82.01
2023-04-02T19:44:17.235Z,82.12
2023-04-02T19:46:45.633Z,82.30
2023-04-02T19:49:29.551Z,82.29
2023-04-02T19:51:57.129Z,82.31
2023-04-02T19:54:24.107Z,82.20
2023-04-02T19:56:51.287Z,82.37
2023-04-02T19:59:19.022Z,82.44
2023-04-02T20:01:47.066Z,82.55
2023-04-02T20:04:14.593Z,82.72
2023-04-02T20:06:41.993Z,82.54
2023-04-02T20:09:09.804Z,82.63
2023-04-02T20:11:38.275Z,82.82
2023-04-02T20:14:06.237Z,82.57
2023-04-02T20:16:34.618Z,82.70
2023-04-02T20:19:01.896Z,82.85
2023-04-02T20:21:29.663Z,82.85
2023-04-02T20:23:56.642Z,82.64
2023-04-02T20:26:23.598Z,82.66
2023-04-02T20:28:50.607Z,82.72
2023-04-02T20:31:18.911Z,82.60
2023-04-02T20:33:46.362Z,82.53
2023-04-02T20:36:17.822Z,82.72
2023-04-02T20:38:45.983Z,82.91
2023-04-02T20:41:13.217Z,83.00
2023-04-02T20:43:41.062Z,82.92
2023-04-02T20:46:10.832Z,82.94
2023-04-02T20:48:39.435Z,82.92
2023-04-02T20:51:08.992Z,82.79
2023-04-02T20:53:38.036Z,82.58
2023-04-02T20:56:14.094Z,82.50
2023-04-02T20:58:41.870Z,82.51
2023-04-02T21:01:20.865Z,82.60
2023-04-02T21:03:48.368Z,82.68
2023-04-02T21:06:21.513Z,83.01
2023-04-02T21:08:49.482Z,83.22
2023-04-02T21:11:17.090Z,83.27
2023-04-02T21:13:44.445Z,83.34
2023-04-02T21:16:23.119Z,83.29
2023-04-02T21:18:52.894Z,83.40
2023-04-02T21:21:21.600Z,82.96
2023-04-02T21:23:53.312Z,83.30
2023-04-02T21:26:20.772Z,83.39
2023-04-02T21:28:47.490Z,83.35
2023-04-02T21:31:17.900Z,83.36
2023-04-02T21:33:47.922Z,83.14
2023-04-02T21:36:16.169Z,83.79
2023-04-02T21:38:54.033Z,83.69
2023-04-02T21:41:26.684Z,83.69
2023-04-02T21:43:54.808Z,84.11
2023-04-02T21:46:24.355Z,83.74
2023-04-02T21:48:52.745Z,83.69
2023-04-02T21:51:23.008Z,83.82
2023-04-02T21:53:50.789Z,83.63
2023-04-02T21:56:23.656Z,83.92
2023-04-02T21:58:51.409Z,83.89
2023-04-02T22:01:27.314Z,84.11
2023-04-02T22:03:59.281Z,84.24
2023-04-02T22:06:28.862Z,83.94
2023-04-02T22:09:01.447Z,84.12
2023-04-02T22:11:31.752Z,84.36
2023-04-02T22:13:59.808Z,84.67
2023-04-02T22:16:29.046Z,84.13
2023-04-02T22:18:58.930Z,84.38
2023-04-02T22:21:26.555Z,84.19
2023-04-02T22:23:53.655Z,84.77
2023-04-02T22:26:23.248Z,84.86
2023-04-02T22:28:52.903Z,84.62
2023-04-02T22:31:23.087Z,84.83
2023-04-02T22:33:51.071Z,84.81
2023-04-02T22:36:19.049Z,84.85
2023-04-02T22:38:46.339Z,85.10
2023-04-02T22:41:15.708Z,84.92
2023-04-02T22:43:45.897Z,85.28
2023-04-02T22:46:15.961Z,84.96
2023-04-02T22:48:44.314Z,85.22
2023-04-02T22:51:12.968Z,85.67
2023-04-02T22:53:40.924Z,85.40
2023-04-02T22:56:10.500Z,85.04
2023-04-02T22:58:38.381Z,85.69
2023-04-02T23:01:16.912Z,85.74
2023-04-02T23:03:44.110Z,85.72
2023-04-02T23:06:15.654Z,85.31
2023-04-02T23:08:43.121Z,85.38
2023-04-02T23:11:12.046Z,85.79
2023-04-02T23:13:39.727Z,85.35
2023-04-02T23:16:11.024Z,85.67
2023-04-02T23:18:40.516Z,85.28
2023-04-02T23:21:08.117Z,85.67
2023-04-02T23:23:36.022Z,85.64
2023-04-02T23:26:08.640Z,85.75
2023-04-02T23:28:36.997Z,85.08
2023-04-02T23:31:05.440Z,85.50
2023-04-02T23:33:32.397Z,85.37
2023-04-02T23:35:59.659Z,85.46
2023-04-02T23:38:27.491Z,85.90
2023-04-02T23:40:54.196Z,85.54
2023-04-02T23:43:21.265Z,85.54
2023-04-02T23:45:51.283Z,85.51
2023-04-02T23:48:18.064Z,85.53
2023-04-02T23:50:45.905Z,85.99
2023-04-02T23:53:13.468Z,86.01
2023-04-02T23:55:40.638Z,86.51
2023-04-02T23:58:07.563Z,86.18
